KPTN/PTN METAR and TAF weather

Enter ICAO airport designator
Station Type Date Time Source
KPTN METAR 2019/10/15 21:56 UTC NOAA

KPTN 152156Z AUTO 23011KT 10SM BKN026 29/24 A2988 RMK AO2 SLP117 T02890239


Station Type Date Time Source
KPTN Decoded METAR 2019/10/15 21:56 UTC NOAA

Patterson Memorial, LA, United States (KPTN) 29-43N 091-20W
Oct 15, 2019 - 05:56 PM EDT / 2019.10.15 2156 UTC
Wind: from the SW (230 degrees) at 13 MPH (11 KT):0
Visibility: 10 mile(s):0
Sky conditions: mostly cloudy
Temperature: 84.0 F (28.9 C)
Dew Point: 75.0 F (23.9 C)
Relative Humidity: 74%
Pressure (altimeter): 29.88 in. Hg (1011 hPa)
ob: KPTN 152156Z AUTO 23011KT 10SM BKN026 29/24 A2988 RMK AO2 SLP117 T02890239
cycle: 22

Station Type Date Time Source
KPTN TAF UTC NOAA

Error!

Example: see airport list